createdAt,value
2022-11-08T00:00:11.438Z,97.37
2022-11-08T00:02:40.239Z,97.58
2022-11-08T00:05:27.251Z,96.99
2022-11-08T00:08:15.022Z,96.51
2022-11-08T00:11:02.201Z,95.47
2022-11-08T00:13:49.627Z,95.38
2022-11-08T00:16:17.927Z,95.43
2022-11-08T00:18:47.400Z,96.53
2022-11-08T00:21:16.156Z,96.24
2022-11-08T00:23:44.944Z,96.02
2022-11-08T00:26:13.728Z,95.66
2022-11-08T00:28:41.554Z,95.86
2022-11-08T00:31:08.995Z,96.33
2022-11-08T00:33:37.468Z,96.28
2022-11-08T00:36:05.182Z,96.41
2022-11-08T00:38:32.878Z,96.93
2022-11-08T00:41:00.826Z,96.66
2022-11-08T00:43:28.624Z,97.05
2022-11-08T00:45:56.133Z,97.77
2022-11-08T00:48:24.077Z,97.32
2022-11-08T00:50:51.533Z,96.93
2022-11-08T00:53:19.102Z,97.29
2022-11-08T00:55:46.866Z,96.17
2022-11-08T00:58:14.516Z,95.44
2022-11-08T01:00:42.166Z,96.47
2022-11-08T01:03:21.700Z,96.40
2022-11-08T01:05:50.056Z,97.57
2022-11-08T01:08:18.760Z,96.53
2022-11-08T01:10:49.016Z,96.14
2022-11-08T01:13:17.052Z,97.27
2022-11-08T01:15:45.463Z,96.77
2022-11-08T01:18:14.787Z,95.44
2022-11-08T01:20:43.962Z,94.53
2022-11-08T01:23:12.616Z,92.59
2022-11-08T01:25:42.261Z,92.56
2022-11-08T01:28:10.793Z,91.64
2022-11-08T01:30:39.806Z,92.33
2022-11-08T01:33:07.596Z,90.57
2022-11-08T01:35:36.357Z,91.59
2022-11-08T01:38:04.853Z,92.86
2022-11-08T01:40:32.876Z,94.06
2022-11-08T01:43:00.432Z,93.28
2022-11-08T01:46:05.919Z,90.59
2022-11-08T01:48:33.292Z,90.70
2022-11-08T01:51:01.045Z,91.23
2022-11-08T01:53:28.911Z,92.10
2022-11-08T01:55:56.596Z,90.86
2022-11-08T01:58:28.436Z,89.17
2022-11-08T02:00:57.184Z,88.66
2022-11-08T02:03:25.063Z,85.03
2022-11-08T02:05:52.509Z,83.69
2022-11-08T02:08:21.426Z,82.51
2022-11-08T02:10:51.425Z,81.63
2022-11-08T02:13:23.412Z,82.10
2022-11-08T02:15:51.581Z,80.85
2022-11-08T02:18:21.167Z,80.75
2022-11-08T02:21:00.871Z,80.71
2022-11-08T02:23:52.277Z,80.39
2022-11-08T02:26:23.753Z,79.55
2022-11-08T02:28:51.671Z,79.20
2022-11-08T02:31:20.338Z,79.34
2022-11-08T02:33:48.560Z,79.47
2022-11-08T02:36:20.544Z,78.74
2022-11-08T02:38:53.438Z,79.79
2022-11-08T02:41:21.343Z,79.77
2022-11-08T02:43:48.903Z,79.16
2022-11-08T02:46:16.353Z,78.09
2022-11-08T02:48:44.182Z,77.39
2022-11-08T02:51:11.602Z,76.81
2022-11-08T02:53:38.938Z,77.13
2022-11-08T02:56:06.958Z,77.56
2022-11-08T02:58:34.287Z,76.94
2022-11-08T03:01:01.806Z,77.67
2022-11-08T03:03:29.653Z,77.99
2022-11-08T03:05:57.530Z,78.75
2022-11-08T03:08:25.947Z,78.57
2022-11-08T03:28:09.280Z,84.90
2022-11-08T03:30:37.089Z,84.86
2022-11-08T03:33:05.076Z,81.72
2022-11-08T03:35:32.546Z,79.30
2022-11-08T03:38:00.169Z,80.24
2022-11-08T03:40:28.132Z,79.65
2022-11-08T03:42:57.449Z,79.12
2022-11-08T03:45:25.081Z,79.68
2022-11-08T03:47:52.510Z,80.30
2022-11-08T03:50:19.859Z,80.82
2022-11-08T03:52:49.954Z,83.50
2022-11-08T03:55:18.668Z,84.36
2022-11-08T03:57:48.131Z,84.69
2022-11-08T04:00:19.098Z,79.37
2022-11-08T04:02:46.940Z,80.58
2022-11-08T04:05:15.100Z,83.21
2022-11-08T04:07:43.070Z,84.51
2022-11-08T04:10:11.490Z,80.26
2022-11-08T04:15:47.223Z,77.19
2022-11-08T04:18:33.419Z,75.82
2022-11-08T04:21:19.377Z,74.79
2022-11-08T04:23:49.008Z,72.16
2022-11-08T04:26:17.065Z,71.26
2022-11-08T04:28:44.462Z,75.10
2022-11-08T04:31:14.957Z,73.86
2022-11-08T04:33:42.366Z,73.00
2022-11-08T04:36:15.447Z,73.16
2022-11-08T04:38:43.284Z,73.25
2022-11-08T04:41:12.825Z,76.14
2022-11-08T04:43:40.462Z,78.27
2022-11-08T04:46:10.906Z,80.37
2022-11-08T04:48:38.374Z,80.89
2022-11-08T04:51:08.076Z,81.68
2022-11-08T04:53:35.771Z,79.17
2022-11-08T04:56:08.413Z,78.03
2022-11-08T04:58:40.486Z,77.54
2022-11-08T05:01:09.604Z,78.25
2022-11-08T05:03:37.894Z,79.48
2022-11-08T05:06:08.074Z,78.12
2022-11-08T05:08:35.420Z,82.50
2022-11-08T05:11:05.007Z,83.50
2022-11-08T05:13:32.499Z,83.02
2022-11-08T05:16:08.410Z,84.28
2022-11-08T05:18:36.183Z,80.68
2022-11-08T05:21:22.724Z,80.81
2022-11-08T05:23:51.125Z,83.02
2022-11-08T05:26:19.452Z,84.55
2022-11-08T05:28:47.832Z,84.38
2022-11-08T05:31:15.991Z,85.34
2022-11-08T05:33:44.253Z,84.60
2022-11-08T05:36:15.180Z,82.67
2022-11-08T05:38:43.311Z,80.72
2022-11-08T05:41:18.480Z,77.88
2022-11-08T05:43:48.283Z,76.30
2022-11-08T05:46:16.887Z,75.52
2022-11-08T05:48:44.605Z,75.55
2022-11-08T05:51:13.072Z,74.58
2022-11-08T05:53:41.132Z,74.39
2022-11-08T05:56:08.503Z,74.32
2022-11-08T05:58:36.647Z,75.07
2022-11-08T06:01:06.309Z,74.06
2022-11-08T06:03:34.139Z,74.23
2022-11-08T06:06:03.374Z,76.20
2022-11-08T06:08:30.900Z,78.56
2022-11-08T06:11:06.277Z,77.24
2022-11-08T06:13:34.392Z,75.96
2022-11-08T06:16:03.940Z,75.64
2022-11-08T06:18:32.038Z,74.15
2022-11-08T06:21:00.456Z,75.42
2022-11-08T06:23:28.396Z,75.46
2022-11-08T06:25:56.043Z,76.27
2022-11-08T06:28:24.139Z,77.72
2022-11-08T06:30:51.987Z,80.36
2022-11-08T06:33:20.523Z,81.59
2022-11-08T06:35:48.215Z,77.96
2022-11-08T06:38:15.968Z,76.84
2022-11-08T06:40:44.957Z,77.23
2022-11-08T06:43:17.953Z,76.43
2022-11-08T06:45:47.346Z,76.33
2022-11-08T06:48:15.111Z,74.24
2022-11-08T06:50:42.868Z,73.38
2022-11-08T06:53:14.717Z,74.68
2022-11-08T06:55:42.275Z,76.53
2022-11-08T06:58:11.094Z,77.54
2022-11-08T07:00:38.555Z,83.69
2022-11-08T07:03:05.975Z,84.48
2022-11-08T07:05:35.101Z,85.82
2022-11-08T07:08:04.719Z,87.86
2022-11-08T07:10:32.953Z,84.91
2022-11-08T07:13:09.929Z,89.55
2022-11-08T07:15:37.891Z,86.11
2022-11-08T07:18:08.272Z,83.63
2022-11-08T07:20:36.474Z,81.81
2022-11-08T07:23:06.747Z,81.68
2022-11-08T07:25:34.731Z,82.70
2022-11-08T07:28:05.527Z,84.68
2022-11-08T07:30:35.325Z,86.53
2022-11-08T07:33:02.796Z,86.57
2022-11-08T07:35:30.675Z,81.94
2022-11-08T07:37:58.345Z,78.60
2022-11-08T07:40:25.926Z,78.17
2022-11-08T07:45:42.026Z,79.17
2022-11-08T07:48:12.817Z,79.60
2022-11-08T07:50:59.308Z,78.73
2022-11-08T07:53:39.276Z,80.22
2022-11-08T07:56:29.632Z,79.28
2022-11-08T07:59:16.155Z,79.09
2022-11-08T08:01:50.619Z,78.62
2022-11-08T08:04:41.031Z,79.30
2022-11-08T08:07:30.957Z,78.86
2022-11-08T08:10:37.085Z,78.28
2022-11-08T08:13:13.367Z,78.66
2022-11-08T08:15:53.063Z,78.75
2022-11-08T08:18:21.830Z,78.44
2022-11-08T08:20:50.439Z,78.71
2022-11-08T08:23:19.764Z,78.33
2022-11-08T08:25:48.539Z,78.79
2022-11-08T08:28:26.221Z,78.60
2022-11-08T08:30:55.024Z,78.96
2022-11-08T08:33:29.492Z,79.51
2022-11-08T08:35:57.942Z,78.65
2022-11-08T08:38:26.904Z,78.07
2022-11-08T08:40:59.839Z,78.02
2022-11-08T08:43:33.305Z,79.07
2022-11-08T08:46:21.611Z,78.93
2022-11-08T08:48:49.927Z,79.72
2022-11-08T08:51:19.810Z,78.27
2022-11-08T08:54:06.216Z,79.85
2022-11-08T08:56:52.815Z,78.51
2022-11-08T09:02:09.493Z,76.92
2022-11-08T09:04:48.399Z,77.05
2022-11-08T09:07:17.642Z,77.10
2022-11-08T09:09:51.798Z,76.86
2022-11-08T09:12:19.660Z,77.67
2022-11-08T09:14:47.175Z,78.36
2022-11-08T09:17:14.908Z,78.89
2022-11-08T09:19:42.727Z,77.80
2022-11-08T09:22:10.462Z,79.24
2022-11-08T09:24:38.327Z,78.75
2022-11-08T09:27:06.073Z,78.54
2022-11-08T09:29:33.972Z,79.75
2022-11-08T09:32:01.714Z,78.96
2022-11-08T09:34:29.518Z,80.33
2022-11-08T09:36:57.006Z,81.95
2022-11-08T09:39:24.360Z,80.44
2022-11-08T09:42:31.209Z,80.86
2022-11-08T09:44:58.583Z,79.35
2022-11-08T09:47:30.768Z,78.89
2022-11-08T09:50:06.227Z,78.80
2022-11-08T09:52:35.128Z,78.97
2022-11-08T09:55:30.589Z,79.89
2022-11-08T09:58:14.491Z,79.60
2022-11-08T10:00:41.931Z,80.19
2022-11-08T10:03:13.658Z,78.49
2022-11-08T10:06:03.686Z,80.32
2022-11-08T10:08:43.142Z,79.88
2022-11-08T10:11:37.860Z,79.47
2022-11-08T10:14:23.902Z,79.74
2022-11-08T10:16:57.458Z,79.00
2022-11-08T10:19:48.669Z,79.07
2022-11-08T10:22:53.326Z,78.24
2022-11-08T10:25:26.809Z,79.42
2022-11-08T10:27:56.585Z,77.57
2022-11-08T10:30:30.810Z,78.12
2022-11-08T10:32:59.889Z,77.25
2022-11-08T10:35:30.392Z,77.31
2022-11-08T10:37:59.227Z,77.05
2022-11-08T10:40:49.903Z,77.55
2022-11-08T10:43:36.650Z,78.39
2022-11-08T10:46:05.349Z,77.29
2022-11-08T10:48:38.904Z,77.01
2022-11-08T10:51:07.993Z,77.86
2022-11-08T10:53:44.140Z,77.44
2022-11-08T10:56:12.310Z,78.99
2022-11-08T10:58:42.388Z,78.69
2022-11-08T11:01:17.301Z,79.32
2022-11-08T11:03:46.432Z,78.35
2022-11-08T11:06:40.217Z,78.83
2022-11-08T11:09:20.825Z,77.20
2022-11-08T11:11:56.990Z,76.68
2022-11-08T11:14:24.839Z,76.49
2022-11-08T11:17:02.365Z,75.93
2022-11-08T11:19:30.451Z,75.44
2022-11-08T11:22:03.333Z,75.34
2022-11-08T11:24:31.443Z,74.57
2022-11-08T11:27:04.846Z,75.30
2022-11-08T11:29:34.856Z,74.80
2022-11-08T11:32:35.210Z,72.40
2022-11-08T11:35:04.633Z,72.58
2022-11-08T11:37:44.138Z,71.53
2022-11-08T11:40:34.968Z,72.05
2022-11-08T11:43:58.302Z,71.64
2022-11-08T11:46:40.188Z,72.25
2022-11-08T11:49:14.615Z,70.54
2022-11-08T11:51:42.411Z,70.60
2022-11-08T11:54:14.134Z,72.05
2022-11-08T11:57:02.444Z,74.21
2022-11-08T11:59:38.873Z,72.62
2022-11-08T12:02:23.575Z,73.92
2022-11-08T12:05:02.046Z,76.06
2022-11-08T12:07:32.909Z,75.52
2022-11-08T12:10:04.312Z,73.75
2022-11-08T12:13:04.100Z,73.23
2022-11-08T12:15:41.567Z,73.55
2022-11-08T12:18:40.945Z,72.58
2022-11-08T12:21:14.821Z,73.22
2022-11-08T12:23:54.432Z,71.74
2022-11-08T12:26:28.434Z,68.82
2022-11-08T12:29:18.401Z,69.66
2022-11-08T12:32:12.893Z,71.42
2022-11-08T12:35:03.898Z,69.66
2022-11-08T12:38:11.344Z,70.13
2022-11-08T12:40:53.741Z,71.53
2022-11-08T12:43:37.842Z,71.81
2022-11-08T12:46:09.448Z,70.69
2022-11-08T12:48:43.884Z,70.39
2022-11-08T12:51:20.435Z,70.79
2022-11-08T12:54:12.685Z,70.88
2022-11-08T12:56:43.846Z,70.35
2022-11-08T12:59:51.397Z,69.67
2022-11-08T13:02:23.111Z,68.62
2022-11-08T13:05:03.315Z,69.10
2022-11-08T13:07:51.693Z,69.46
2022-11-08T13:10:47.592Z,70.17
2022-11-08T13:13:49.594Z,69.23
2022-11-08T13:16:18.433Z,68.75
2022-11-08T13:18:57.083Z,68.29
2022-11-08T13:21:30.565Z,69.00
2022-11-08T13:27:42.222Z,67.56
2022-11-08T13:30:12.938Z,68.37
2022-11-08T13:32:43.279Z,68.75
2022-11-08T13:35:22.017Z,68.47
2022-11-08T13:38:14.412Z,67.53
2022-11-08T13:40:59.909Z,67.49
2022-11-08T13:43:29.861Z,67.78
2022-11-08T13:46:20.074Z,69.37
2022-11-08T13:49:05.096Z,69.80
2022-11-08T13:51:36.831Z,69.13
2022-11-08T13:54:31.105Z,69.70
2022-11-08T13:57:03.617Z,69.34
2022-11-08T13:59:31.205Z,68.05
2022-11-08T14:02:18.814Z,70.17
2022-11-08T14:04:47.048Z,69.23
2022-11-08T14:07:22.089Z,68.92
2022-11-08T14:10:06.249Z,69.19
2022-11-08T14:12:39.960Z,70.37
2022-11-08T14:15:18.735Z,70.76
2022-11-08T14:17:49.306Z,70.21
2022-11-08T14:20:23.031Z,69.91
2022-11-08T14:22:51.361Z,70.39
2022-11-08T14:25:27.217Z,70.54
2022-11-08T14:27:56.853Z,70.53
2022-11-08T14:30:25.297Z,68.70
2022-11-08T14:33:08.060Z,69.28
2022-11-08T14:35:36.308Z,69.19
2022-11-08T14:38:04.327Z,68.86
2022-11-08T14:40:31.863Z,68.58
2022-11-08T14:42:59.630Z,69.16
2022-11-08T14:45:29.232Z,69.52
2022-11-08T14:48:03.611Z,70.04
2022-11-08T14:50:33.189Z,71.78
2022-11-08T14:53:46.578Z,72.96
2022-11-08T14:56:22.499Z,74.20
2022-11-08T14:58:51.959Z,74.39
2022-11-08T15:01:23.834Z,75.06
2022-11-08T15:04:03.722Z,72.54
2022-11-08T15:06:34.387Z,72.87
2022-11-08T15:09:03.564Z,75.27
2022-11-08T15:11:34.111Z,74.35
2022-11-08T15:14:17.055Z,76.02
2022-11-08T15:16:50.315Z,77.06
2022-11-08T15:19:39.886Z,76.13
2022-11-08T15:22:26.776Z,77.02
2022-11-08T15:25:24.710Z,76.46
2022-11-08T15:28:12.739Z,75.97
2022-11-08T15:30:44.286Z,77.54
2022-11-08T15:33:28.776Z,79.53
2022-11-08T15:35:56.213Z,81.29
2022-11-08T15:38:36.808Z,81.22
2022-11-08T15:41:06.920Z,81.04
2022-11-08T15:43:37.916Z,81.45
2022-11-08T15:46:06.949Z,81.16
2022-11-08T15:48:35.633Z,82.77
2022-11-08T15:51:05.541Z,82.74
2022-11-08T15:53:33.137Z,82.96
2022-11-08T15:56:05.844Z,83.50
2022-11-08T15:58:36.661Z,82.79
2022-11-08T16:01:05.473Z,82.82
2022-11-08T16:03:39.526Z,83.92
2022-11-08T16:06:09.811Z,83.51
2022-11-08T16:08:38.197Z,84.14
2022-11-08T16:11:12.556Z,84.72
2022-11-08T16:13:40.749Z,84.36
2022-11-08T16:16:13.984Z,82.86
2022-11-08T16:18:42.778Z,84.88
2022-11-08T16:21:12.784Z,86.18
2022-11-08T16:23:41.383Z,86.61
2022-11-08T16:26:15.435Z,85.27
2022-11-08T16:28:43.659Z,86.40
2022-11-08T16:31:16.321Z,86.56
2022-11-08T16:33:45.425Z,86.93
2022-11-08T16:36:21.565Z,86.35
2022-11-08T16:38:57.057Z,85.91
2022-11-08T16:41:26.857Z,84.56
2022-11-08T16:43:57.017Z,85.71
2022-11-08T16:46:25.553Z,87.68
2022-11-08T16:48:58.741Z,88.80
2022-11-08T16:51:27.927Z,87.06
2022-11-08T16:53:55.907Z,87.61
2022-11-08T16:56:24.190Z,87.67
2022-11-08T16:58:52.244Z,87.89
2022-11-08T17:01:24.117Z,88.39
2022-11-08T17:03:52.690Z,87.54
2022-11-08T17:06:21.122Z,88.42
2022-11-08T17:08:49.391Z,89.26
2022-11-08T17:11:20.113Z,89.56
2022-11-08T17:13:49.065Z,89.77
2022-11-08T17:16:18.881Z,89.35
2022-11-08T17:18:52.523Z,89.83
2022-11-08T17:24:09.690Z,90.06
2022-11-08T17:26:37.816Z,90.98
2022-11-08T17:29:07.098Z,90.46
2022-11-08T17:31:35.454Z,90.54
2022-11-08T17:34:03.558Z,90.33
2022-11-08T17:36:31.837Z,89.21
2022-11-08T17:39:00.070Z,88.70
2022-11-08T17:41:30.416Z,89.68
2022-11-08T17:43:59.572Z,88.18
2022-11-08T17:46:30.228Z,90.84
2022-11-08T17:48:58.817Z,90.49
2022-11-08T17:51:30.183Z,92.60
2022-11-08T17:53:58.496Z,92.83
2022-11-08T17:56:26.401Z,92.83
2022-11-08T17:58:54.743Z,91.88
2022-11-08T18:01:23.539Z,90.23
2022-11-08T18:03:51.511Z,88.96
2022-11-08T18:06:20.609Z,90.54
2022-11-08T18:08:48.377Z,91.34
2022-11-08T18:11:16.208Z,90.49
2022-11-08T18:13:44.215Z,91.27
2022-11-08T18:16:17.800Z,90.10
2022-11-08T18:18:46.612Z,90.96
2022-11-08T18:21:15.540Z,91.11
2022-11-08T18:23:45.313Z,89.85
2022-11-08T18:26:14.585Z,88.90
2022-11-08T18:28:44.262Z,88.36
2022-11-08T18:31:15.146Z,87.74
2022-11-08T18:33:44.368Z,88.35
2022-11-08T18:36:23.523Z,88.38
2022-11-08T18:38:52.656Z,89.97
2022-11-08T18:41:27.692Z,87.40
2022-11-08T18:43:56.442Z,90.60
2022-11-08T18:46:26.676Z,91.23
2022-11-08T18:48:55.846Z,89.63
2022-11-08T18:51:27.244Z,89.86
2022-11-08T18:53:56.083Z,90.78
2022-11-08T18:56:24.618Z,88.82
2022-11-08T18:58:52.292Z,90.62
2022-11-08T19:01:21.234Z,88.99
2022-11-08T19:03:50.832Z,88.33
2022-11-08T19:06:20.695Z,89.14
2022-11-08T19:08:49.154Z,88.71
2022-11-08T19:11:21.987Z,87.20
2022-11-08T19:13:50.765Z,88.47
2022-11-08T19:16:20.587Z,88.39
2022-11-08T19:18:53.021Z,89.17
2022-11-08T19:21:24.666Z,90.14
2022-11-08T19:23:57.476Z,90.10
2022-11-08T19:26:26.981Z,90.93
2022-11-08T19:28:56.127Z,90.39
2022-11-08T19:31:26.265Z,89.47
2022-11-08T19:33:55.052Z,89.23
2022-11-08T19:36:28.686Z,89.42
2022-11-08T19:38:57.868Z,89.95
2022-11-08T19:41:30.227Z,88.57
2022-11-08T19:43:58.675Z,88.71
2022-11-08T19:46:29.458Z,90.76
2022-11-08T19:49:02.916Z,86.78
2022-11-08T19:51:35.157Z,87.98
2022-11-08T19:54:10.501Z,89.38
2022-11-08T19:59:27.323Z,91.25
2022-11-08T20:02:04.605Z,90.40
2022-11-08T20:04:33.333Z,90.09
2022-11-08T20:07:01.155Z,89.11
2022-11-08T20:09:37.844Z,90.41
2022-11-08T20:12:06.533Z,90.50
2022-11-08T20:14:34.752Z,87.00
2022-11-08T20:17:02.761Z,89.02
2022-11-08T20:19:32.178Z,90.53
2022-11-08T20:22:00.276Z,91.49
2022-11-08T20:24:28.530Z,91.02
2022-11-08T20:26:57.534Z,89.90
2022-11-08T20:29:26.184Z,89.84
2022-11-08T20:31:54.832Z,90.16
2022-11-08T20:34:23.136Z,88.08
2022-11-08T20:36:51.336Z,88.50
2022-11-08T20:39:20.548Z,89.63
2022-11-08T20:41:49.331Z,89.14
2022-11-08T20:44:18.037Z,87.93
2022-11-08T20:46:46.359Z,88.20
2022-11-08T20:49:14.842Z,86.78
2022-11-08T20:51:44.354Z,86.17
2022-11-08T20:54:13.761Z,85.82
2022-11-08T20:56:43.406Z,85.58
2022-11-08T20:59:11.553Z,86.23
2022-11-08T21:01:39.686Z,84.91
2022-11-08T21:04:09.319Z,84.37
2022-11-08T21:06:37.723Z,84.44
2022-11-08T21:09:32.814Z,86.67
2022-11-08T21:11:55.512Z,87.03
2022-11-08T21:14:27.521Z,87.35
2022-11-08T21:19:43.676Z,87.51
2022-11-08T21:22:18.254Z,88.55
2022-11-08T21:24:48.531Z,90.13
2022-11-08T21:27:17.252Z,88.07
2022-11-08T21:29:45.040Z,87.06
2022-11-08T21:32:13.414Z,86.45
2022-11-08T21:34:46.363Z,87.58
2022-11-08T21:37:14.838Z,85.13
2022-11-08T21:39:44.284Z,85.21
2022-11-08T21:42:12.103Z,84.51
2022-11-08T21:44:40.088Z,84.58
2022-11-08T21:47:08.145Z,83.64
2022-11-08T21:49:35.921Z,85.47
2022-11-08T21:52:03.881Z,84.16
2022-11-08T21:54:31.702Z,83.67
2022-11-08T21:56:59.536Z,82.92
2022-11-08T21:59:27.122Z,85.16
2022-11-08T22:01:54.790Z,85.11
2022-11-08T22:04:22.723Z,85.29
2022-11-08T22:06:50.362Z,83.88
2022-11-08T22:09:17.861Z,83.06
2022-11-08T22:11:45.814Z,84.74
2022-11-08T22:14:13.294Z,85.85
2022-11-08T22:16:40.914Z,86.51
2022-11-08T22:19:09.220Z,86.28
2022-11-08T22:21:40.432Z,84.46
2022-11-08T22:24:14.373Z,85.15
2022-11-08T22:26:42.317Z,85.54
2022-11-08T22:29:10.489Z,86.40
2022-11-08T22:31:38.434Z,87.55
2022-11-08T22:34:08.303Z,85.75
2022-11-08T22:36:44.543Z,85.70
2022-11-08T22:39:14.417Z,84.37
2022-11-08T22:41:43.527Z,86.04
2022-11-08T22:44:13.018Z,87.47
2022-11-08T22:46:41.823Z,86.06
2022-11-08T22:49:10.556Z,87.14
2022-11-08T22:51:39.098Z,87.64
2022-11-08T22:54:06.920Z,85.43
2022-11-08T22:56:35.295Z,87.07
2022-11-08T22:59:02.971Z,86.53
2022-11-08T23:01:30.373Z,88.28
2022-11-08T23:03:58.201Z,88.55
2022-11-08T23:06:26.131Z,88.07
2022-11-08T23:08:53.907Z,89.88
2022-11-08T23:11:40.214Z,89.56
2022-11-08T23:14:32.323Z,89.24
2022-11-08T23:17:03.490Z,88.78
2022-11-08T23:19:49.649Z,88.84
2022-11-08T23:22:36.908Z,86.58
2022-11-08T23:25:04.882Z,88.92
2022-11-08T23:27:51.337Z,88.73
2022-11-08T23:30:37.772Z,89.64
2022-11-08T23:33:06.965Z,90.74
2022-11-08T23:35:34.738Z,91.57
2022-11-08T23:38:02.227Z,89.66
2022-11-08T23:40:48.705Z,90.16
2022-11-08T23:43:36.591Z,91.34
2022-11-08T23:46:11.825Z,91.86
2022-11-08T23:48:39.959Z,90.33
2022-11-08T23:51:07.842Z,90.27
2022-11-08T23:53:37.284Z,89.71
2022-11-08T23:56:05.879Z,90.24
2022-11-08T23:58:34.027Z,89.61
